Clinton, SC (29325)

6:58 AM EST on December 05, 2016 (GMT -0500)
Walker Family Farm | | Change Station

Elev 620 ft 34.42 °N, 81.98 °W | Updated 3 minutes ago

Overcast
Overcast
43.0 °F
Feels Like 43 °F
N
0.0
Wind Variable Wind from NNW
Gusts 6.0 mph

Today
High -- | Low -- °F
--% Chance of Precip.
Yesterday
High -- | Low -- °F
Precip. -- in
Pressure 30.05 in
Visibility 10.0 miles
Clouds Overcast 1300 ft
Windchill 43 °F
Dew Point 42 °F
Humidity 95%
Rainfall 0.09 in
Snow Depth Not available.
7:19 AM 5:16 PM
Waxing Crescent, 31% visible
METAR KEOE 051155Z AUTO 00000KT 10SM OVC013 06/06 A3005 RMK AO2
Pressure 30.05 in
Visibility 10.0 miles
Clouds Overcast 1300 ft
Windchill 43 °F
Dew Point 42 °F
Humidity 95%
Rainfall 0.09 in
Snow Depth Not available.
7:19 AM 5:16 PM
Waxing Crescent, 31% visible
METAR KEOE 051155Z AUTO 00000KT 10SM OVC013 06/06 A3005 RMK AO2

10-Day Weather Forecast

Almanac

Astronomy

Dec. 05, 2016 Rise Set
Actual Time
Civil Twilight
Nautical Twilight
Astronomical Twilight
Moon
Length of Visible Light
Length of Day
Tomorrow will be .
, % of the Moon is Illuminated

Today's Extremes

State Highs State Lows

Community

WunderPhotos

Upload Photos

1,955,777 photos uploaded!

WunderBlog® & News

Nearby

Air Quality

  Air Quality AQ Index Pollutant
Not available.

Snow Depth

Station Depth Elevation

Earthquake Activity

City Distance Mag. Time & Date
Minimum magnitude displayed is 2.5.

Coastal Water Temperatures

Place Temperature

Stations

Nearby Weather Stations

Station Location Temp. Windchill Dew Point Humidity Wind Precip. Elev Updated Type
                   

Watches & Warnings

There are currently no watches in effect.